Time;durP1;ratioP1;P1;durP2;ratioP2;P2;SDS_P1;SDS_P2;PMS_P1;PMS_P2;Temp;Humidity;BMP_temperature;BMP_pressure;BME280_temperature;BME280_humidity;BME280_pressure;Samples;Min_cycle;Max_cycle;Signal;HPM_P1;HPM_P2
2023/10/30 07:00:38;;;;;;;2.63;1.20;;;;;;;11.38;100.00;99595.75;6060021;22;4120995;-89
2023/10/30 07:03:05;;;;;;;2.20;1.20;;;;;;;11.31;100.00;99586.34;6117337;23;20464;-89
2023/10/30 07:05:32;;;;;;;2.13;1.25;;;;;;;11.33;100.00;99608.28;6139660;23;20082;-88
2023/10/30 07:07:59;;;;;;;2.08;1.58;;;;;;;11.32;100.00;99606.56;6139840;23;20031;-89
2023/10/30 07:10:25;;;;;;;4.07;1.77;;;;;;;11.26;100.00;99594.44;6139197;23;20025;-90
2023/10/30 07:12:53;;;;;;;4.95;1.65;;;;;;;11.31;100.00;99587.19;6188867;23;20016;-89
2023/10/30 07:15:20;;;;;;;6.18;1.45;;;;;;;11.33;100.00;99592.44;6139633;23;20027;-87
2023/10/30 07:17:47;;;;;;;10.23;8.75;;;;;;;11.27;100.00;99606.78;6163877;23;20105;-90
2023/10/30 07:20:14;;;;;;;12.10;10.98;;;;;;;11.39;100.00;99611.56;6139024;23;20415;-88
2023/10/30 07:22:41;;;;;;;6.47;5.82;;;;;;;11.42;100.00;99613.19;6163738;23;20017;-90
2023/10/30 07:25:08;;;;;;;5.95;3.40;;;;;;;11.42;100.00;99618.50;6164069;23;20043;-88
2023/10/30 07:27:35;;;;;;;5.90;1.55;;;;;;;11.37;100.00;99620.47;6153917;23;20043;-86
2023/10/30 07:30:02;;;;;;;4.00;2.75;;;;;;;11.51;100.00;99624.25;6159480;23;20067;-89
2023/10/30 07:32:29;;;;;;;3.67;2.50;;;;;;;11.50;100.00;99633.13;6139106;23;20070;-88
2023/10/30 07:34:56;;;;;;;1.80;1.40;;;;;;;11.47;100.00;99632.41;6139792;23;20020;-89
2023/10/30 07:37:23;;;;;;;3.85;1.52;;;;;;;11.62;100.00;99623.84;6138745;23;20035;-90
2023/10/30 07:39:50;;;;;;;5.07;2.35;;;;;;;11.68;100.00;99615.63;6139161;23;20071;-89
2023/10/30 07:42:17;;;;;;;3.85;1.83;;;;;;;11.60;100.00;99617.72;6164671;23;20070;-89
2023/10/30 07:44:44;;;;;;;4.68;2.35;;;;;;;11.73;100.00;99616.31;6139272;23;20024;-89
2023/10/30 07:47:10;;;;;;;2.00;1.13;;;;;;;11.70;100.00;99616.47;6162470;23;20083;-91
2023/10/30 07:49:40;;;;;;;4.97;1.42;;;;;;;11.73;100.00;99623.41;6142353;23;20416;-89
2023/10/30 07:52:07;;;;;;;4.07;1.65;;;;;;;11.72;100.00;99619.03;6166598;23;20016;-88
2023/10/30 07:54:34;;;;;;;2.88;1.48;;;;;;;11.81;100.00;99624.81;6148689;23;20043;-90
2023/10/30 07:57:01;;;;;;;2.53;1.48;;;;;;;11.95;100.00;99639.28;6145252;23;20479;-89
2023/10/30 07:59:28;;;;;;;4.63;1.25;;;;;;;11.88;100.00;99648.41;6140702;23;20039;-89
2023/10/30 08:01:55;;;;;;;3.00;1.63;;;;;;;11.97;100.00;99648.00;6141170;23;20227;-90
2023/10/30 08:04:22;;;;;;;4.30;1.52;;;;;;;11.85;100.00;99638.78;6139403;23;20483;-90
2023/10/30 08:06:49;;;;;;;2.08;1.27;;;;;;;12.02;100.00;99644.25;6164356;23;20031;-90
2023/10/30 08:09:16;;;;;;;5.50;1.83;;;;;;;12.02;100.00;99656.59;6141092;23;20461;-89
2023/10/30 08:11:43;;;;;;;5.13;2.40;;;;;;;11.97;100.00;99651.50;6164883;23;20020;-90
2023/10/30 08:14:10;;;;;;;2.42;1.42;;;;;;;12.00;100.00;99638.13;6164548;23;20024;-90
2023/10/30 08:16:36;;;;;;;4.57;1.33;;;;;;;11.93;100.00;99641.09;6139887;23;20021;-89
2023/10/30 08:19:03;;;;;;;4.78;1.33;;;;;;;11.88;100.00;99640.47;6189118;23;20413;-87
2023/10/30 08:21:30;;;;;;;3.53;1.25;;;;;;;11.91;100.00;99645.63;6140048;23;20028;-90
2023/10/30 08:23:57;;;;;;;2.40;1.20;;;;;;;11.96;100.00;99636.56;6141326;23;20333;-91
2023/10/30 08:26:25;;;;;;;2.25;1.27;;;;;;;11.89;100.00;99640.38;6165174;23;20468;-90
2023/10/30 08:28:53;;;;;;;2.67;1.15;;;;;;;11.94;100.00;99649.00;6143219;23;20356;-91
2023/10/30 08:31:22;;;;;;;3.42;1.35;;;;;;;12.05;100.00;99644.09;6143029;23;20009;-92
2023/10/30 08:33:49;;;;;;;3.28;1.67;;;;;;;12.08;100.00;99649.25;6142366;23;20020;-91
2023/10/30 08:36:21;;;;;;;3.90;1.30;;;;;;;12.11;100.00;99649.16;6141253;23;20087;-90
2023/10/30 08:38:48;;;;;;;4.90;1.30;;;;;;;12.11;100.00;99645.66;6143129;23;20079;-90
2023/10/30 08:41:19;;;;;;;3.90;1.60;;;;;;;12.05;100.00;99645.91;6141214;23;20028;-90
2023/10/30 08:43:48;;;;;;;3.08;1.25;;;;;;;12.05;100.00;99644.09;6143967;23;20401;-89
2023/10/30 08:46:18;;;;;;;4.32;1.40;;;;;;;12.15;100.00;99644.56;6143336;23;20024;-90
2023/10/30 08:48:46;;;;;;;4.10;1.40;;;;;;;12.14;100.00;99648.16;6141108;23;20029;-91
2023/10/30 08:51:13;;;;;;;4.15;1.58;;;;;;;12.24;100.00;99652.13;6142313;23;20467;-91
2023/10/30 08:53:40;;;;;;;5.07;1.40;;;;;;;12.19;100.00;99640.88;6140144;23;20017;-90
2023/10/30 08:56:07;;;;;;;6.75;1.50;;;;;;;12.32;100.00;99646.50;6140923;23;20021;-91
2023/10/30 08:58:36;;;;;;;3.38;1.35;;;;;;;12.31;100.00;99632.38;6139822;23;20020;-92
2023/10/30 09:06:19;;;;;;;1.80;1.50;;;;;;;12.44;100.00;99648.59;6098714;23;20067;-90
2023/10/30 09:19:26;;;;;;;4.57;1.40;;;;;;;12.43;100.00;99651.31;6064272;23;20477;-90
2023/10/30 09:23:13;;;;;;;12.00;6.47;;;;;;;12.55;100.00;99656.94;5951416;24;20031;-91
2023/10/30 09:25:40;;;;;;;3.92;1.73;;;;;;;12.66;100.00;99651.16;5936196;23;20030;-91
2023/10/30 09:28:07;;;;;;;5.00;1.50;;;;;;;12.72;100.00;99657.97;5995287;23;20027;-91
2023/10/30 09:30:34;;;;;;;3.70;1.52;;;;;;;12.77;100.00;99661.25;6065686;23;20536;-90
2023/10/30 09:33:01;;;;;;;2.65;1.20;;;;;;;12.81;100.00;99654.91;6084009;23;20022;-91
2023/10/30 09:35:32;;;;;;;2.13;1.27;;;;;;;12.86;100.00;99659.06;6107218;23;20032;-90
2023/10/30 09:37:59;;;;;;;3.50;1.25;;;;;;;12.88;100.00;99662.50;6083717;23;20562;-92
2023/10/30 09:40:26;;;;;;;3.45;1.33;;;;;;;12.93;100.00;99665.78;6083383;23;20040;-89
2023/10/30 09:42:54;;;;;;;6.78;1.70;;;;;;;13.16;100.00;99674.47;6106484;23;20017;-89
2023/10/30 09:45:22;;;;;;;3.95;1.50;;;;;;;13.08;100.00;99669.53;6081862;23;20022;-88
2023/10/30 09:47:54;;;;;;;7.70;1.60;;;;;;;13.19;100.00;99666.38;6106367;23;20025;-88
2023/10/30 09:50:22;;;;;;;2.90;1.20;;;;;;;13.19;100.00;99669.91;6105756;23;20025;-89
2023/10/30 09:52:53;;;;;;;3.25;1.70;;;;;;;13.26;100.00;99672.28;6083853;23;20076;-88
2023/10/30 09:55:22;;;;;;;6.15;1.40;;;;;;;13.24;100.00;99675.88;6081487;23;20029;-89
2023/10/30 09:57:53;;;;;;;3.17;1.58;;;;;;;13.35;100.00;99670.06;6082241;23;20472;-90
2023/10/30 10:00:20;;;;;;;5.28;1.40;;;;;;;13.41;100.00;99671.56;6083374;23;20054;-88
2023/10/30 10:02:48;;;;;;;6.20;1.65;;;;;;;13.47;100.00;99671.28;6083145;23;20418;-89
2023/10/30 10:05:17;;;;;;;5.68;1.75;;;;;;;13.58;100.00;99674.25;6106162;23;20024;-88
2023/10/30 10:07:44;;;;;;;9.93;5.60;;;;;;;13.59;100.00;99672.47;6107072;23;20025;-89
2023/10/30 10:10:12;;;;;;;9.38;4.72;;;;;;;13.74;100.00;99667.28;6104965;23;20021;-89
2023/10/30 10:12:38;;;;;;;9.30;8.38;;;;;;;13.84;100.00;99665.00;6081635;23;20028;-89
2023/10/30 10:15:07;;;;;;;6.53;4.00;;;;;;;13.97;99.70;99665.28;6082338;23;20074;-89
2023/10/30 10:17:42;;;;;;;3.72;2.13;;;;;;;13.93;99.86;99656.59;6104727;23;20060;-89
2023/10/30 10:20:10;;;;;;;4.85;4.15;;;;;;;13.97;99.05;99666.13;6127565;23;20096;-89
2023/10/30 10:22:38;;;;;;;7.05;3.83;;;;;;;14.07;98.68;99675.34;6140113;23;20044;-90
2023/10/30 10:25:10;;;;;;;7.68;3.28;;;;;;;14.15;98.21;99666.16;6162714;23;20019;-87
2023/10/30 10:27:38;;;;;;;6.70;2.33;;;;;;;14.30;98.48;99676.00;6152262;23;20120;-89
2023/10/30 10:30:07;;;;;;;8.75;3.90;;;;;;;14.27;99.03;99674.34;6137798;23;20079;-88
2023/10/30 10:32:37;;;;;;;4.43;1.50;;;;;;;14.49;97.79;99676.78;6162914;23;20490;-89
2023/10/30 10:35:06;;;;;;;6.18;1.92;;;;;;;14.58;98.04;99676.28;6162088;23;20080;-89
2023/10/30 10:37:33;;;;;;;5.35;2.00;;;;;;;14.64;95.89;99665.34;6137920;23;20104;-90
2023/10/30 10:40:02;;;;;;;5.13;2.83;;;;;;;14.68;92.79;99670.50;6162205;23;20029;-89
2023/10/30 10:42:29;;;;;;;3.28;1.35;;;;;;;14.70;94.88;99664.13;6162331;23;20071;-89
2023/10/30 10:44:57;;;;;;;6.53;1.70;;;;;;;14.71;92.31;99665.84;6137742;23;20059;-89
2023/10/30 10:47:24;;;;;;;5.20;1.80;;;;;;;14.72;93.66;99672.06;6137737;23;20021;-89
2023/10/30 10:49:51;;;;;;;3.03;1.30;;;;;;;14.69;94.93;99677.53;6137860;23;20569;-89
2023/10/30 10:52:19;;;;;;;5.70;1.70;;;;;;;14.66;92.60;99678.56;6137398;23;20017;-89
2023/10/30 10:55:03;;;;;;;3.40;1.30;;;;;;;14.57;94.63;99676.38;6139261;23;20104;-90
2023/10/30 10:57:52;;;;;;;6.30;1.80;;;;;;;14.60;95.46;99674.41;6137656;23;20029;-89
2023/10/30 11:00:20;;;;;;;3.53;1.20;;;;;;;14.61;93.32;99670.81;6138335;23;20020;-89
2023/10/30 11:02:49;;;;;;;4.93;1.80;;;;;;;14.67;92.73;99680.28;6162096;23;20016;-88
2023/10/30 11:05:17;;;;;;;4.07;1.73;;;;;;;14.60;95.23;99670.91;6138052;23;20075;-89
2023/10/30 11:07:51;;;;;;;3.83;1.40;;;;;;;14.74;91.08;99675.50;6161214;23;20021;-89
2023/10/30 11:10:23;;;;;;;;;;;;;;;14.62;93.49;99684.97;6138392;23;20020;-88
2023/10/30 11:13:11;;;;;;;5.90;1.63;;;;;;;14.75;93.28;99679.88;6137309;23;20291;-89
2023/10/30 11:15:45;;;;;;;3.38;1.60;;;;;;;14.72;93.52;99682.69;6161646;23;20027;-89
2023/10/30 11:18:24;;;;;;;3.88;1.60;;;;;;;14.60;94.27;99682.38;6137592;23;20369;-89
2023/10/30 11:21:15;;;;;;;4.90;2.08;;;;;;;14.53;93.42;99685.44;6139224;23;20044;-89
2023/10/30 11:23:45;;;;;;;5.10;2.33;;;;;;;14.55;95.21;99683.59;6163511;23;20440;-89
2023/10/30 11:26:30;;;;;;;6.53;1.63;;;;;;;14.65;96.78;99679.50;6163175;23;20051;-89
2023/10/30 11:28:57;;;;;;;3.15;1.20;;;;;;;14.84;92.71;99687.34;6163898;23;20074;-89
2023/10/30 11:32:04;;;;;;;3.10;2.10;;;;;;;15.05;91.72;99675.56;6139094;23;20357;-89
2023/10/30 11:34:33;;;;;;;3.25;1.33;;;;;;;15.22;90.00;99666.66;6187841;23;20032;-89
2023/10/30 11:37:11;;;;;;;4.22;1.40;;;;;;;15.36;85.94;99669.38;6163202;23;20025;-88
2023/10/30 11:39:39;;;;;;;6.28;1.50;;;;;;;15.27;87.32;99667.25;6139156;23;20111;-89
2023/10/30 11:42:29;;;;;;;8.82;2.13;;;;;;;15.35;86.81;99674.81;6139615;23;20107;-88
2023/10/30 11:45:30;;;;;;;9.25;2.35;;;;;;;15.57;84.04;99666.47;6140399;23;20103;-89
2023/10/30 11:48:05;;;;;;;3.20;1.50;;;;;;;15.59;83.06;99670.75;6141500;23;20052;-90
2023/10/30 11:50:43;;;;;;;4.07;1.60;;;;;;;15.55;83.33;99671.88;6138580;23;20030;-89
2023/10/30 11:53:12;;;;;;;4.68;1.90;;;;;;;15.61;83.21;99654.72;6137416;23;20103;-89
2023/10/30 11:55:40;;;;;;;6.88;2.72;;;;;;;15.69;83.31;99657.81;6162626;23;20021;-90
2023/10/30 11:58:11;;;;;;;3.58;1.40;;;;;;;15.73;82.20;99657.56;6138577;23;20032;-89
2023/10/30 12:00:44;;;;;;;5.03;1.77;;;;;;;15.82;80.41;99661.50;6149222;23;20024;-90
2023/10/30 12:03:12;;;;;;;;;;;;;;;15.79;79.15;99651.00;6140005;23;20453;-89
2023/10/30 12:05:39;;;;;;;7.10;2.13;;;;;;;15.93;80.64;99643.06;6137243;23;19944;-89
2023/10/30 12:08:06;;;;;;;4.63;2.03;;;;;;;16.01;78.00;99651.47;6137851;23;20028;-89
2023/10/30 12:10:33;;;;;;;5.43;1.60;;;;;;;16.04;77.04;99651.28;6138981;23;20353;-88
2023/10/30 12:13:03;;;;;;;5.75;3.47;;;;;;;16.07;75.86;99652.06;6141318;23;20453;-89
2023/10/30 12:15:31;;;;;;;6.05;2.03;;;;;;;15.92;75.77;99643.19;6140314;23;20025;-89
2023/10/30 12:17:58;;;;;;;6.35;2.58;;;;;;;15.94;75.03;99649.25;6137862;23;20103;-88
2023/10/30 12:20:25;;;;;;;4.85;1.77;;;;;;;15.96;76.60;99653.53;6137277;23;20024;-89
2023/10/30 12:22:54;;;;;;;5.47;1.48;;;;;;;16.00;74.06;99644.44;6137471;23;20043;-89
2023/10/30 12:25:21;;;;;;;6.30;1.52;;;;;;;15.97;76.48;99638.41;6137831;23;20127;-89
2023/10/30 12:27:48;;;;;;;5.15;1.70;;;;;;;15.93;75.65;99636.91;6137577;23;20399;-89
2023/10/30 12:30:17;;;;;;;4.72;1.40;;;;;;;15.96;73.39;99636.69;6137965;23;20031;-89
2023/10/30 12:32:54;;;;;;;6.55;1.63;;;;;;;15.77;75.01;99634.25;6137927;23;20023;-89
2023/10/30 12:35:21;;;;;;;5.15;1.60;;;;;;;15.83;74.67;99636.56;6138332;23;20048;-89
2023/10/30 12:37:48;;;;;;;3.85;1.35;;;;;;;15.74;74.63;99637.13;6137547;23;20051;-88
2023/10/30 12:40:15;;;;;;;4.35;1.40;;;;;;;15.86;72.28;99630.19;6137596;23;20021;-89
2023/10/30 12:42:44;;;;;;;3.55;1.45;;;;;;;15.79;74.29;99635.03;6161320;23;20021;-89
2023/10/30 12:45:13;;;;;;;3.05;1.30;;;;;;;15.84;73.73;99632.09;6137483;23;20028;-89
2023/10/30 12:47:44;;;;;;;4.18;1.40;;;;;;;15.87;72.78;99623.94;6137256;23;20020;-90
2023/10/30 12:50:13;;;;;;;4.05;1.33;;;;;;;15.84;73.61;99624.97;6137857;23;20034;-88
2023/10/30 12:52:42;;;;;;;4.03;1.60;;;;;;;15.70;74.00;99620.44;6137072;23;20024;-88
2023/10/30 12:55:10;;;;;;;3.40;1.75;;;;;;;15.65;74.15;99619.88;6138230;23;20020;-89
2023/10/30 12:57:37;;;;;;;3.45;1.63;;;;;;;15.63;73.95;99627.06;6137662;23;20448;-89
2023/10/30 13:00:07;;;;;;;6.15;1.83;;;;;;;15.53;76.43;99627.66;6136943;23;20259;-89
2023/10/30 13:02:35;;;;;;;4.40;1.48;;;;;;;15.60;75.17;99629.88;6138298;23;20031;-89
2023/10/30 13:05:03;;;;;;;5.35;1.60;;;;;;;15.55;76.47;99621.28;6137505;23;20035;-89
2023/10/30 13:07:30;;;;;;;5.75;1.60;;;;;;;15.62;74.54;99622.69;6137421;23;20272;-89
2023/10/30 13:09:57;;;;;;;4.80;1.23;;;;;;;15.66;75.39;99623.38;6138537;23;20040;-89
2023/10/30 13:12:28;;;;;;;7.32;3.95;;;;;;;15.56;76.61;99624.84;6138371;23;20474;-90
2023/10/30 13:15:26;;;;;;;7.35;2.15;;;;;;;15.53;76.00;99617.88;6136985;23;20025;-89
2023/10/30 13:18:11;;;;;;;6.50;1.95;;;;;;;15.40;79.30;99617.72;6161783;23;20028;-90
2023/10/30 13:21:25;;;;;;;3.78;1.73;;;;;;;15.27;77.88;99614.03;6161851;23;20027;-91
2023/10/30 13:24:03;;;;;;;4.63;1.67;;;;;;;15.41;79.07;99613.25;6133325;23;20096;-91
2023/10/30 13:26:33;;;;;;;4.63;1.40;;;;;;;15.46;78.28;99605.84;6107541;23;20088;-89
2023/10/30 13:29:00;;;;;;;2.80;1.90;;;;;;;15.46;79.97;99606.69;6108296;23;20029;-90
2023/10/30 13:32:21;;;;;;;4.78;2.40;;;;;;;15.55;79.75;99593.81;6107264;23;20036;-90
2023/10/30 13:36:26;;;;;;;5.18;1.38;;;;;;;15.63;80.35;99591.59;6182669;23;20087;-89
2023/10/30 14:01:55;;;;;;;3.88;1.98;;;;;;;14.66;91.71;99592.63;6065908;23;20462;-90
2023/10/30 14:04:22;;;;;;;6.28;2.10;;;;;;;14.66;91.87;99588.16;6018352;23;20141;-88
2023/10/30 14:06:49;;;;;;;4.22;1.40;;;;;;;14.49;93.56;99578.44;6059798;23;20048;-89
2023/10/30 14:09:16;;;;;;;2.13;1.48;;;;;;;14.42;94.41;99581.47;6105995;23;20017;-88
2023/10/30 14:11:43;;;;;;;5.25;1.40;;;;;;;14.37;95.25;99585.22;6106485;23;20100;-89
2023/10/30 14:14:10;;;;;;;2.60;1.30;;;;;;;14.31;95.80;99580.25;6154811;23;20480;-90
2023/10/30 14:16:40;;;;;;;3.20;1.50;;;;;;;14.29;97.29;99573.28;6105851;23;20052;-88
2023/10/30 14:19:07;;;;;;;5.28;1.70;;;;;;;14.24;99.17;99576.19;6130436;23;20021;-88
2023/10/30 14:21:37;;;;;;;5.78;1.80;;;;;;;14.21;99.90;99573.72;6106985;23;20425;-90
2023/10/30 14:24:07;;;;;;;3.42;1.40;;;;;;;14.16;100.00;99577.53;6107363;23;20032;-89
2023/10/30 14:26:35;;;;;;;5.03;1.52;;;;;;;14.13;100.00;99569.75;6106543;23;20053;-91
2023/10/30 14:29:03;;;;;;;3.35;1.60;;;;;;;14.11;100.00;99574.25;6106939;23;20088;-89
2023/10/30 14:31:30;;;;;;;5.65;2.28;;;;;;;14.08;100.00;99569.97;6106383;23;20460;-89
2023/10/30 14:33:57;;;;;;;5.78;1.80;;;;;;;14.02;100.00;99560.53;6107853;23;20479;-90
2023/10/30 14:36:24;;;;;;;9.80;2.00;;;;;;;13.91;100.00;99554.06;6108776;23;20092;-91
2023/10/30 14:38:51;;;;;;;5.18;1.65;;;;;;;13.86;100.00;99550.78;6109770;23;20021;-90
2023/10/30 14:41:18;;;;;;;6.15;2.00;;;;;;;13.74;100.00;99545.16;6109441;23;20378;-90
2023/10/30 14:43:45;;;;;;;2.15;1.20;;;;;;;13.70;100.00;99537.41;6109480;23;20342;-89
2023/10/30 14:46:12;;;;;;;6.32;1.50;;;;;;;13.65;100.00;99542.13;6111239;23;20032;-90
2023/10/30 14:48:39;;;;;;;7.43;1.98;;;;;;;13.60;100.00;99536.19;6113508;23;20476;-90
2023/10/30 14:51:06;;;;;;;2.92;1.30;;;;;;;13.51;100.00;99537.50;6112884;23;20108;-90
2023/10/30 14:53:33;;;;;;;3.97;1.50;;;;;;;13.47;100.00;99542.13;6111603;23;20071;-90
2023/10/30 14:56:00;;;;;;;5.32;1.77;;;;;;;13.49;100.00;99537.59;6112665;23;20087;-90
2023/10/30 14:58:27;;;;;;;3.83;1.30;;;;;;;13.35;100.00;99542.72;6137786;23;20025;-90
2023/10/30 15:00:54;;;;;;;6.20;1.88;;;;;;;13.35;100.00;99539.19;6111158;23;20095;-91
2023/10/30 15:03:22;;;;;;;3.63;1.83;;;;;;;13.18;100.00;99535.56;6134570;23;20017;-90
2023/10/30 15:05:51;;;;;;;2.97;1.60;;;;;;;13.15;100.00;99545.47;6111922;23;20028;-91
2023/10/30 15:08:18;;;;;;;7.65;2.85;;;;;;;13.21;100.00;99551.38;6110197;23;20025;-90
2023/10/30 15:11:37;;;;;;;5.70;2.92;;;;;;;13.13;100.00;99550.84;6110272;23;20033;-89
2023/10/30 15:20:28;;;;;;;6.10;2.03;;;;;;;12.90;100.00;99536.03;6094447;23;20373;-90
2023/10/30 15:41:10;;;;;;;6.13;2.50;;;;;;;12.25;100.00;99510.84;6008370;23;20022;-91
